createdAt,value
2022-10-07T00:02:47.590Z,99074.92
2022-10-07T00:05:35.930Z,99077.44
2022-10-07T00:08:24.947Z,99067.27
2022-10-07T00:11:15.635Z,99068.34
2022-10-07T00:14:10.912Z,99067.40
2022-10-07T00:17:08.018Z,99065.70
2022-10-07T00:20:15.241Z,99059.63
2022-10-07T00:23:38.942Z,99066.73
2022-10-07T00:26:44.391Z,99062.57
2022-10-07T00:30:07.986Z,99056.89
2022-10-07T00:33:10.611Z,99050.94
2022-10-07T00:36:16.344Z,99053.95
2022-10-07T00:39:32.606Z,99053.65
2022-10-07T00:42:29.859Z,99042.83
2022-10-07T00:45:57.238Z,99040.84
2022-10-07T00:48:55.220Z,99044.98
2022-10-07T00:51:53.114Z,99041.86
2022-10-07T00:54:55.054Z,99040.16
2022-10-07T00:57:55.914Z,99037.93
2022-10-07T01:00:45.300Z,99038.69
2022-10-07T01:03:33.859Z,99037.39
2022-10-07T01:06:22.371Z,99034.83
2022-10-07T01:09:20.990Z,99028.65
2022-10-07T01:12:43.221Z,99024.73
2022-10-07T01:16:07.633Z,99018.22
2022-10-07T01:19:29.305Z,99013.84
2022-10-07T01:23:01.335Z,99012.37
2022-10-07T01:26:52.999Z,99010.36
2022-10-07T01:30:24.954Z,99006.85
2022-10-07T01:33:37.941Z,99009.23
2022-10-07T01:36:31.892Z,99009.60
2022-10-07T01:39:42.862Z,99009.84
2022-10-07T01:42:49.346Z,99014.14
2022-10-07T01:45:43.468Z,99009.95
2022-10-07T01:49:04.236Z,99010.16
2022-10-07T01:52:08.042Z,99016.80
2022-10-07T01:55:17.922Z,99009.16
2022-10-07T01:58:51.433Z,99006.99
2022-10-07T02:02:26.603Z,98996.95
2022-10-07T02:05:44.601Z,99000.58
2022-10-07T02:09:13.800Z,98995.70
2022-10-07T02:12:28.114Z,98988.32
2022-10-07T02:15:48.881Z,98992.30
2022-10-07T02:18:42.846Z,98989.20
2022-10-07T02:22:03.105Z,98988.50
2022-10-07T02:25:14.055Z,98981.86
2022-10-07T02:28:26.521Z,98980.89
2022-10-07T02:31:41.314Z,98981.45
2022-10-07T02:34:48.659Z,98973.94
2022-10-07T02:38:08.502Z,98970.98
2022-10-07T02:41:51.884Z,98969.60
2022-10-07T02:45:37.335Z,98967.39
2022-10-07T02:48:59.638Z,98966.18
2022-10-07T02:52:41.478Z,98962.98
2022-10-07T02:55:42.576Z,98958.13
2022-10-07T02:58:56.180Z,98952.04
2022-10-07T03:02:16.772Z,98949.77
2022-10-07T03:05:42.798Z,98946.88
2022-10-07T03:08:52.661Z,98946.73
2022-10-07T03:11:49.537Z,98944.78
2022-10-07T03:14:49.903Z,98945.45
2022-10-07T03:17:36.046Z,98954.64
2022-10-07T03:20:47.575Z,98948.86
2022-10-07T03:23:51.288Z,98946.58
2022-10-07T03:26:37.913Z,98943.77
2022-10-07T03:29:38.936Z,98939.80
2022-10-07T03:32:46.471Z,98941.41
2022-10-07T03:35:27.078Z,98941.08
2022-10-07T03:38:30.190Z,98936.44
2022-10-07T03:41:27.047Z,98938.42
2022-10-07T03:44:41.174Z,98937.65
2022-10-07T03:47:38.529Z,98940.44
2022-10-07T03:50:06.262Z,98936.44
2022-10-07T03:52:32.792Z,98930.77
2022-10-07T03:54:59.341Z,98929.86
2022-10-07T03:57:44.867Z,98925.36
2022-10-07T04:00:12.340Z,98924.25
2022-10-07T04:02:38.922Z,98919.48
2022-10-07T04:05:05.667Z,98914.77
2022-10-07T04:07:33.309Z,98912.70
2022-10-07T04:10:00.332Z,98912.44
2022-10-07T04:12:26.857Z,98906.57
2022-10-07T04:14:54.213Z,98902.66
2022-10-07T04:17:21.937Z,98900.62
2022-10-07T04:19:48.503Z,98897.42
2022-10-07T04:22:15.034Z,98896.50
2022-10-07T04:24:41.607Z,98892.34
2022-10-07T04:27:08.187Z,98888.98
2022-10-07T04:29:39.004Z,98884.64
2022-10-07T04:32:05.933Z,98882.21
2022-10-07T04:34:32.798Z,98882.55
2022-10-07T04:37:01.261Z,98880.67
2022-10-07T04:39:48.937Z,98881.14
2022-10-07T04:42:34.793Z,98876.42
2022-10-07T04:45:01.450Z,98876.20
2022-10-07T04:47:28.040Z,98876.64
2022-10-07T04:49:55.265Z,98876.20
2022-10-07T04:52:21.915Z,98871.38
2022-10-07T04:54:48.559Z,98875.69
2022-10-07T04:57:15.128Z,98876.08
2022-10-07T04:59:43.088Z,98878.46
2022-10-07T05:02:10.075Z,98870.37
2022-10-07T05:04:37.165Z,98865.89
2022-10-07T05:07:04.189Z,98868.77
2022-10-07T05:09:30.836Z,98864.96
2022-10-07T05:11:57.520Z,98869.14
2022-10-07T05:14:24.185Z,98869.71
2022-10-07T05:16:51.708Z,98867.77
2022-10-07T05:19:18.818Z,98868.98
2022-10-07T05:21:45.908Z,98867.59
2022-10-07T05:24:12.496Z,98865.77
2022-10-07T05:26:39.048Z,98865.27
2022-10-07T05:29:07.082Z,98868.34
2022-10-07T05:31:34.133Z,98862.77
2022-10-07T05:34:01.031Z,98863.81
2022-10-07T05:36:27.623Z,98864.63
2022-10-07T05:38:58.160Z,98862.42
2022-10-07T05:41:24.920Z,98866.21
2022-10-07T05:43:51.560Z,98868.04
2022-10-07T05:46:20.649Z,98868.03
2022-10-07T05:48:49.013Z,98870.79
2022-10-07T05:51:15.725Z,98865.88
2022-10-07T05:53:43.169Z,98867.55
2022-10-07T05:56:12.688Z,98867.54
2022-10-07T05:58:39.449Z,98864.42
2022-10-07T06:01:13.704Z,98859.54
2022-10-07T06:03:41.705Z,98855.79
2022-10-07T06:06:09.145Z,98856.95
2022-10-07T06:08:36.719Z,98861.01
2022-10-07T06:11:23.772Z,98861.79
2022-10-07T06:13:52.938Z,98859.65
2022-10-07T06:16:20.151Z,98861.61
2022-10-07T06:18:47.895Z,98861.23
2022-10-07T06:21:14.445Z,98866.48
2022-10-07T06:23:41.014Z,98868.48
2022-10-07T06:26:10.650Z,98866.58
2022-10-07T06:28:42.228Z,98860.08
2022-10-07T06:31:15.136Z,98859.83
2022-10-07T06:33:41.963Z,98857.90
2022-10-07T06:36:13.402Z,98857.90
2022-10-07T06:38:48.263Z,98855.38
2022-10-07T06:41:16.027Z,98855.66
2022-10-07T06:43:42.832Z,98855.09
2022-10-07T06:46:14.783Z,98853.56
2022-10-07T06:48:43.049Z,98854.67
2022-10-07T06:51:13.797Z,98856.23
2022-10-07T06:53:40.369Z,98856.58
2022-10-07T06:56:06.978Z,98857.33
2022-10-07T06:58:33.619Z,98856.95
2022-10-07T07:01:00.906Z,98852.56
2022-10-07T07:03:29.079Z,98847.60
2022-10-07T07:05:55.979Z,98847.20
2022-10-07T07:08:27.698Z,98852.54
2022-10-07T07:10:54.630Z,98849.38
2022-10-07T07:13:21.463Z,98844.98
2022-10-07T07:15:55.528Z,98846.48
2022-10-07T07:19:11.649Z,98840.52
2022-10-07T07:21:38.395Z,98835.39
2022-10-07T07:24:05.662Z,98834.51
2022-10-07T07:26:32.689Z,98833.79
2022-10-07T07:29:02.404Z,98833.16
2022-10-07T07:31:32.977Z,98830.91
2022-10-07T07:34:01.963Z,98835.23
2022-10-07T07:36:31.015Z,98830.35
2022-10-07T07:39:04.063Z,98829.08
2022-10-07T07:41:33.210Z,98827.15
2022-10-07T07:44:03.582Z,98822.80
2022-10-07T07:46:36.270Z,98824.35
2022-10-07T07:49:03.989Z,98819.59
2022-10-07T07:51:31.969Z,98815.16
2022-10-07T07:53:59.896Z,98817.19
2022-10-07T07:56:29.250Z,98815.88
2022-10-07T07:58:56.589Z,98815.59
2022-10-07T08:01:23.274Z,98809.84
2022-10-07T08:03:51.017Z,98809.85
2022-10-07T08:06:20.792Z,98807.00
2022-10-07T08:08:48.099Z,98808.05
2022-10-07T08:11:19.654Z,98801.96
2022-10-07T08:13:47.227Z,98800.82
2022-10-07T08:16:17.355Z,98795.87
2022-10-07T08:18:47.356Z,98794.75
2022-10-07T08:21:18.272Z,98789.08
2022-10-07T08:23:45.729Z,98789.44
2022-10-07T08:26:12.253Z,98790.20
2022-10-07T08:28:40.288Z,98790.77
2022-10-07T08:31:15.550Z,98789.44
2022-10-07T08:33:45.124Z,98784.17
2022-10-07T08:36:19.926Z,98785.30
2022-10-07T08:38:49.461Z,98782.10
2022-10-07T08:41:19.914Z,98782.31
2022-10-07T08:43:51.092Z,98776.30
2022-10-07T08:46:31.100Z,98778.58
2022-10-07T08:49:10.597Z,98777.95
2022-10-07T08:52:17.073Z,98774.41
2022-10-07T08:54:43.688Z,98774.17
2022-10-07T08:57:20.545Z,98770.35
2022-10-07T08:59:53.849Z,98768.68
2022-10-07T09:03:28.479Z,98767.11
2022-10-07T09:05:57.199Z,98762.59
2022-10-07T09:08:32.691Z,98759.55
2022-10-07T09:11:15.903Z,98754.58
2022-10-07T09:14:11.203Z,98751.17
2022-10-07T09:16:43.376Z,98750.92
2022-10-07T09:19:32.026Z,98748.00
2022-10-07T09:22:06.519Z,98748.80
2022-10-07T09:24:35.053Z,98746.35
2022-10-07T09:27:09.152Z,98740.19
2022-10-07T09:29:36.686Z,98737.84
2022-10-07T09:32:03.353Z,98741.19
2022-10-07T09:34:31.265Z,98740.27
2022-10-07T09:37:26.719Z,98736.90
2022-10-07T09:39:57.351Z,98737.80
2022-10-07T09:42:31.679Z,98727.65
2022-10-07T09:45:02.110Z,98730.02
2022-10-07T09:47:36.772Z,98726.75
2022-10-07T09:50:04.149Z,98724.93
2022-10-07T09:52:32.343Z,98721.17
2022-10-07T09:55:41.773Z,98718.67
2022-10-07T09:58:17.782Z,98717.17
2022-10-07T10:00:49.646Z,98718.09
2022-10-07T10:03:17.484Z,98715.30
2022-10-07T10:05:55.298Z,98709.52
2022-10-07T10:08:24.220Z,98703.73
2022-10-07T10:10:59.096Z,98706.77
2022-10-07T10:13:32.750Z,98696.95
2022-10-07T10:16:00.569Z,98695.46
2022-10-07T10:18:36.614Z,98689.60
2022-10-07T10:21:20.223Z,98681.31
2022-10-07T10:23:49.528Z,98675.59
2022-10-07T10:26:42.126Z,98671.81
2022-10-07T10:29:27.188Z,98668.98
2022-10-07T10:32:25.621Z,98664.86
2022-10-07T10:35:14.323Z,98662.95
2022-10-07T10:37:40.881Z,98658.89
2022-10-07T10:40:29.047Z,98658.17
2022-10-07T10:43:25.823Z,98653.29
2022-10-07T10:46:22.541Z,98648.31
2022-10-07T10:49:14.065Z,98643.35
2022-10-07T10:51:53.330Z,98639.68
2022-10-07T10:54:43.372Z,98636.70
2022-10-07T10:57:32.287Z,98629.52
2022-10-07T11:00:11.275Z,98628.59
2022-10-07T11:02:37.838Z,98623.59
2022-10-07T11:05:22.030Z,98619.86
2022-10-07T11:08:10.449Z,98618.19
2022-10-07T11:10:52.187Z,98610.83
2022-10-07T11:13:38.572Z,98604.92
2022-10-07T11:16:28.008Z,98601.61
2022-10-07T11:19:22.213Z,98599.13
2022-10-07T11:21:50.924Z,98593.33
2022-10-07T11:24:32.666Z,98592.06
2022-10-07T11:27:28.435Z,98583.91
2022-10-07T11:30:15.196Z,98576.09
2022-10-07T11:32:49.789Z,98574.96
2022-10-07T11:35:37.647Z,98571.27
2022-10-07T11:38:10.408Z,98565.77
2022-10-07T11:41:03.369Z,98557.37
2022-10-07T11:43:33.330Z,98554.67
2022-10-07T11:46:14.228Z,98552.27
2022-10-07T11:48:46.808Z,98544.54
2022-10-07T11:51:27.184Z,98540.51
2022-10-07T11:53:57.889Z,98540.48
2022-10-07T11:56:31.432Z,98531.45
2022-10-07T11:59:01.034Z,98529.84
2022-10-07T12:01:29.027Z,98530.71
2022-10-07T12:04:00.347Z,98524.05
2022-10-07T12:06:27.391Z,98517.96
2022-10-07T12:08:54.571Z,98519.19
2022-10-07T12:11:24.749Z,98517.85
2022-10-07T12:13:53.657Z,98519.94
2022-10-07T12:16:32.560Z,98517.20
2022-10-07T12:19:09.776Z,98510.84
2022-10-07T12:22:05.022Z,98512.09
2022-10-07T12:24:34.687Z,98504.17
2022-10-07T12:27:28.177Z,98505.80
2022-10-07T12:29:58.877Z,98498.16
2022-10-07T12:32:44.319Z,98499.00
2022-10-07T12:35:29.373Z,98495.46
2022-10-07T12:38:04.607Z,98498.02
2022-10-07T12:40:35.001Z,98490.54
2022-10-07T12:43:15.563Z,98487.19
2022-10-07T12:45:43.580Z,98485.88
2022-10-07T12:48:20.436Z,98486.04
2022-10-07T12:50:50.968Z,98481.49
2022-10-07T12:53:19.322Z,98476.13
2022-10-07T12:55:50.345Z,98472.70
2022-10-07T12:58:57.542Z,98471.81
2022-10-07T13:01:48.256Z,98462.64
2022-10-07T13:04:24.057Z,98458.02
2022-10-07T13:07:12.506Z,98459.23
2022-10-07T13:09:47.933Z,98453.44
2022-10-07T13:12:34.549Z,98449.93
2022-10-07T13:15:28.042Z,98444.52
2022-10-07T13:18:40.638Z,98441.73
2022-10-07T13:21:22.179Z,98436.70
2022-10-07T13:23:52.554Z,98433.52
2022-10-07T13:26:22.372Z,98431.13
2022-10-07T13:28:58.428Z,98427.98
2022-10-07T13:31:28.678Z,98418.92
2022-10-07T13:33:57.452Z,98416.80
2022-10-07T13:36:29.777Z,98408.49
2022-10-07T13:39:31.762Z,98413.54
2022-10-07T13:42:00.040Z,98402.93
2022-10-07T13:44:30.867Z,98399.73
2022-10-07T13:47:06.988Z,98395.64
2022-10-07T13:49:38.119Z,98392.88
2022-10-07T13:52:21.728Z,98386.08
2022-10-07T13:54:52.859Z,98382.56
2022-10-07T13:57:21.518Z,98377.98
2022-10-07T13:59:49.499Z,98375.13
2022-10-07T14:02:16.634Z,98368.67
2022-10-07T14:04:50.668Z,98366.66
2022-10-07T14:07:20.101Z,98362.77
2022-10-07T14:09:46.617Z,98359.55
2022-10-07T14:12:18.218Z,98355.38
2022-10-07T14:14:52.176Z,98350.69
2022-10-07T14:17:21.859Z,98344.39
2022-10-07T14:19:56.298Z,98346.84
2022-10-07T14:22:34.364Z,98344.95
2022-10-07T14:25:04.367Z,98342.58
2022-10-07T14:27:40.017Z,98338.17
2022-10-07T14:30:29.429Z,98341.79
2022-10-07T14:33:25.786Z,98334.31
2022-10-07T14:36:12.856Z,98331.09
2022-10-07T14:38:41.283Z,98329.83
2022-10-07T14:41:09.687Z,98326.86
2022-10-07T14:43:39.271Z,98323.45
2022-10-07T14:46:12.142Z,98319.38
2022-10-07T14:48:39.035Z,98320.67
2022-10-07T14:51:05.871Z,98319.85
2022-10-07T14:53:33.217Z,98317.13
2022-10-07T14:55:59.917Z,98317.57
2022-10-07T14:58:26.592Z,98310.83
2022-10-07T15:00:53.238Z,98308.45
2022-10-07T15:03:20.166Z,98306.98
2022-10-07T15:05:48.887Z,98303.52
2022-10-07T15:08:15.382Z,98305.70
2022-10-07T15:10:41.952Z,98300.49
2022-10-07T15:13:13.211Z,98299.80
2022-10-07T15:15:42.465Z,98298.13
2022-10-07T15:18:11.491Z,98299.70
2022-10-07T15:20:39.758Z,98296.45
2022-10-07T15:23:08.201Z,98295.50
2022-10-07T15:25:35.887Z,98294.86
2022-10-07T15:28:02.496Z,98291.86
2022-10-07T15:30:29.921Z,98294.45
2022-10-07T15:32:58.370Z,98298.42
2022-10-07T15:35:27.102Z,98297.23
2022-10-07T15:37:54.545Z,98291.02
2022-10-07T15:40:21.182Z,98288.20
2022-10-07T15:42:48.191Z,98287.36
2022-10-07T15:45:15.171Z,98284.74
2022-10-07T15:47:41.758Z,98279.80
2022-10-07T15:50:08.809Z,98280.95
2022-10-07T15:52:35.401Z,98279.14
2022-10-07T15:55:07.896Z,98282.05
2022-10-07T15:57:35.190Z,98281.56
2022-10-07T16:00:02.527Z,98279.95
2022-10-07T16:02:29.203Z,98282.63
2022-10-07T16:04:55.831Z,98280.27
2022-10-07T16:07:22.485Z,98277.27
2022-10-07T16:09:49.033Z,98276.98
2022-10-07T16:12:15.579Z,98272.48
2022-10-07T16:14:42.136Z,98275.59
2022-10-07T16:17:08.766Z,98277.84
2022-10-07T16:19:35.424Z,98279.02
2022-10-07T16:22:02.028Z,98275.77
2022-10-07T16:24:34.072Z,98275.56
2022-10-07T16:27:01.672Z,98272.41
2022-10-07T16:29:47.054Z,98273.98
2022-10-07T16:32:13.633Z,98267.34
2022-10-07T16:34:43.612Z,98266.02
2022-10-07T16:37:11.251Z,98269.06
2022-10-07T16:39:37.862Z,98268.51
2022-10-07T16:42:04.499Z,98267.13
2022-10-07T16:44:31.092Z,98265.44
2022-10-07T16:46:59.209Z,98263.98
2022-10-07T16:49:27.828Z,98267.40
2022-10-07T16:51:54.546Z,98265.45
2022-10-07T16:54:21.931Z,98269.34
2022-10-07T16:56:50.850Z,98272.20
2022-10-07T16:59:22.580Z,98270.18
2022-10-07T17:01:56.351Z,98273.93
2022-10-07T17:04:24.659Z,98268.80
2022-10-07T17:06:51.721Z,98266.49
2022-10-07T17:09:18.635Z,98261.43
2022-10-07T17:11:45.897Z,98260.20
2022-10-07T17:14:17.333Z,98258.67
2022-10-07T17:16:49.883Z,98259.02
2022-10-07T17:19:19.823Z,98260.77
2022-10-07T17:21:48.326Z,98259.20
2022-10-07T17:24:16.106Z,98259.84
2022-10-07T17:26:43.390Z,98259.50
2022-10-07T17:29:12.202Z,98259.80
2022-10-07T17:31:41.047Z,98261.89
2022-10-07T17:34:07.702Z,98258.90
2022-10-07T17:36:35.367Z,98256.74
2022-10-07T17:39:02.703Z,98257.51
2022-10-07T17:41:32.333Z,98253.30
2022-10-07T17:44:01.526Z,98257.01
2022-10-07T17:46:30.651Z,98256.60
2022-10-07T17:48:59.341Z,98257.68
2022-10-07T17:51:30.049Z,98253.27
2022-10-07T17:53:59.846Z,98254.76
2022-10-07T17:56:28.398Z,98254.48
2022-10-07T17:58:55.923Z,98253.59
2022-10-07T18:01:27.367Z,98243.92
2022-10-07T18:04:02.161Z,98244.25
2022-10-07T18:06:37.697Z,98240.03
2022-10-07T18:09:06.568Z,98236.75
2022-10-07T18:11:52.993Z,98234.48
2022-10-07T18:14:38.353Z,98235.71
2022-10-07T18:17:06.446Z,98235.08
2022-10-07T18:19:33.139Z,98232.21
2022-10-07T18:21:59.807Z,98233.65
2022-10-07T18:24:28.966Z,98229.98
2022-10-07T18:26:59.475Z,98231.27
2022-10-07T18:29:31.993Z,98228.02
2022-10-07T18:31:59.344Z,98229.98
2022-10-07T18:34:26.172Z,98227.69
2022-10-07T18:36:56.542Z,98223.73
2022-10-07T18:39:24.825Z,98218.80
2022-10-07T18:41:51.532Z,98216.78
2022-10-07T18:44:18.073Z,98214.77
2022-10-07T18:46:45.146Z,98211.41
2022-10-07T18:49:13.944Z,98212.73
2022-10-07T18:51:41.262Z,98210.10
2022-10-07T18:54:07.942Z,98211.49
2022-10-07T18:56:39.812Z,98211.08
2022-10-07T18:59:08.645Z,98209.69
2022-10-07T19:01:35.279Z,98212.30
2022-10-07T19:04:03.233Z,98209.96
2022-10-07T19:06:32.680Z,98212.84
2022-10-07T19:09:05.267Z,98211.89
2022-10-07T19:11:31.853Z,98206.95
2022-10-07T19:13:59.585Z,98208.97
2022-10-07T19:16:35.407Z,98211.95
2022-10-07T19:19:05.296Z,98214.57
2022-10-07T19:21:33.571Z,98213.14
2022-10-07T19:24:03.564Z,98213.22
2022-10-07T19:26:39.597Z,98213.38
2022-10-07T19:29:09.141Z,98209.19
2022-10-07T19:31:40.364Z,98205.29
2022-10-07T19:34:09.878Z,98200.13
2022-10-07T19:36:42.494Z,98197.61
2022-10-07T19:39:10.747Z,98197.35
2022-10-07T19:41:37.749Z,98194.70
2022-10-07T19:44:05.698Z,98191.84
2022-10-07T19:46:33.664Z,98191.95
2022-10-07T19:49:02.270Z,98188.55
2022-10-07T19:51:30.772Z,98191.22
2022-10-07T19:53:59.898Z,98191.90
2022-10-07T19:56:29.500Z,98190.83
2022-10-07T19:58:58.547Z,98190.12
2022-10-07T20:01:27.866Z,98191.48
2022-10-07T20:04:08.917Z,98188.15
2022-10-07T20:06:36.961Z,98186.84
2022-10-07T20:09:05.304Z,98186.26
2022-10-07T20:11:32.857Z,98183.95
2022-10-07T20:14:00.057Z,98182.48
2022-10-07T20:16:27.921Z,98177.48
2022-10-07T20:19:01.132Z,98179.32
2022-10-07T20:21:29.881Z,98178.05
2022-10-07T20:23:56.807Z,98174.40
2022-10-07T20:26:26.108Z,98173.94
2022-10-07T20:28:55.582Z,98171.93
2022-10-07T20:31:28.555Z,98173.56
2022-10-07T20:33:56.632Z,98168.29
2022-10-07T20:36:29.521Z,98170.51
2022-10-07T20:39:17.850Z,98170.30
2022-10-07T20:42:03.303Z,98163.38
2022-10-07T20:44:30.484Z,98163.64
2022-10-07T20:46:57.398Z,98162.09
2022-10-07T20:49:28.558Z,98164.91
2022-10-07T20:51:59.533Z,98160.13
2022-10-07T20:54:26.901Z,98164.39
2022-10-07T20:56:55.036Z,98164.63
2022-10-07T20:59:21.696Z,98158.79
2022-10-07T21:01:48.313Z,98157.64
2022-10-07T21:04:15.665Z,98157.09
2022-10-07T21:06:43.574Z,98158.98
2022-10-07T21:09:11.467Z,98158.29
2022-10-07T21:11:38.652Z,98154.96
2022-10-07T21:14:05.326Z,98154.88
2022-10-07T21:16:35.173Z,98158.09
2022-10-07T21:19:02.012Z,98162.05
2022-10-07T21:21:29.091Z,98156.95
2022-10-07T21:23:55.761Z,98158.14
2022-10-07T21:26:23.057Z,98156.83
2022-10-07T21:28:49.648Z,98152.64
2022-10-07T21:31:19.261Z,98155.46
2022-10-07T21:33:48.866Z,98154.85
2022-10-07T21:36:21.092Z,98152.35
2022-10-07T21:38:53.469Z,98156.15
2022-10-07T21:41:23.280Z,98150.45
2022-10-07T21:43:51.820Z,98148.08
2022-10-07T21:46:19.039Z,98151.36
2022-10-07T21:48:45.710Z,98148.53
2022-10-07T21:51:13.187Z,98143.41
2022-10-07T21:53:40.096Z,98139.47
2022-10-07T21:56:08.569Z,98137.84
2022-10-07T21:58:35.887Z,98134.02
2022-10-07T22:01:11.828Z,98134.77
2022-10-07T22:03:38.903Z,98133.94
2022-10-07T22:06:08.082Z,98134.52
2022-10-07T22:08:35.762Z,98130.89
2022-10-07T22:11:19.284Z,98127.16
2022-10-07T22:13:53.394Z,98122.09
2022-10-07T22:16:20.085Z,98120.02
2022-10-07T22:18:52.070Z,98117.14
2022-10-07T22:21:23.941Z,98118.48
2022-10-07T22:24:01.726Z,98115.03
2022-10-07T22:26:33.443Z,98115.61
2022-10-07T22:29:00.405Z,98107.76
2022-10-07T22:31:27.236Z,98104.17
2022-10-07T22:33:56.745Z,98106.34
2022-10-07T22:36:23.396Z,98104.83
2022-10-07T22:38:50.439Z,98099.16
2022-10-07T22:41:19.443Z,98100.37
2022-10-07T22:43:47.717Z,98098.16
2022-10-07T22:46:26.309Z,98099.39
2022-10-07T22:48:56.427Z,98098.88
2022-10-07T22:51:24.525Z,98093.42
2022-10-07T22:53:54.505Z,98088.92
2022-10-07T22:56:22.553Z,98086.77
2022-10-07T22:58:54.947Z,98083.70
2022-10-07T23:01:22.213Z,98082.48
2022-10-07T23:03:48.880Z,98080.39
2022-10-07T23:06:18.213Z,98078.66
2022-10-07T23:08:46.925Z,98080.17
2022-10-07T23:11:19.750Z,98078.45
2022-10-07T23:13:46.673Z,98075.48
2022-10-07T23:16:16.564Z,98074.69
2022-10-07T23:18:45.077Z,98074.81
2022-10-07T23:21:13.940Z,98072.92
2022-10-07T23:23:43.706Z,98067.95
2022-10-07T23:26:12.575Z,98067.62
2022-10-07T23:28:39.998Z,98063.60
2022-10-07T23:31:09.087Z,98063.55
2022-10-07T23:33:37.242Z,98060.48
2022-10-07T23:36:07.321Z,98061.65
2022-10-07T23:38:34.397Z,98057.91
2022-10-07T23:41:02.330Z,98056.02
2022-10-07T23:43:33.471Z,98055.29
2022-10-07T23:46:01.362Z,98056.05
2022-10-07T23:48:28.559Z,98052.54
2022-10-07T23:50:55.351Z,98052.41
2022-10-07T23:53:23.247Z,98051.17
2022-10-07T23:55:51.895Z,98050.65
2022-10-07T23:58:21.668Z,98044.96
